ADDS METAR Data INFO
IDs: Format: Raw Decoded Include TAF

Data at: 1038 UTC 19 Oct 2017

KIBM 191015Z AUTO 00000KT 10SM CLR 06/M02 A3006 RMK AO2 T00551023
KIBM 190950Z AUTO 17006KT 10SM CLR 05/M02 A3006 RMK AO2 T00471020
KIBM 190935Z AUTO 17007KT 10SM CLR 06/M02 A3008 RMK AO2 T00591016
KIBM 190915Z AUTO 18009KT 10SM CLR 07/M01 A3008 RMK AO2 T00651013
KIBM 190855Z AUTO 19006KT 10SM CLR 06/M01 A3010 RMK AO2 T00601011
KIBM 190835Z AUTO 18006KT 10SM CLR 05/M01 A3010 RMK AO2 T00511015
KIBM 190815Z AUTO 22005KT 10SM CLR 06/M02 A3011 RMK AO2 T00551017
KIBM 190755Z AUTO 21004KT 10SM CLR 06/M02 A3011 RMK AO2 T00581016
KIBM 190735Z AUTO 23003KT 10SM CLR 06/M02 A3012 RMK AO2 T00581017
KIBM 190715Z AUTO 00000KT 10SM CLR 07/M02 A3012 RMK AO2 T00701016
KIBM 190655Z AUTO 00000KT 10SM CLR 05/M01 A3013 RMK AO2 T00541015 402190050
KIBM 190635Z AUTO 00000KT 10SM CLR 06/M02 A3012 RMK AO2 T00561016
KIBM 190615Z AUTO 17004KT 10SM CLR 06/M02 A3012 RMK AO2 T00601017
KIBM 190555Z AUTO 00000KT 10SM CLR 06/M02 A3013 RMK AO2 T00601024 10153 20050
KIBM 190535Z AUTO 00000KT 10SM CLR 06/M02 A3013 RMK AO2 T00631021
KIBM 190515Z AUTO 18003KT 10SM CLR 06/M02 A3013 RMK AO2 T00551021
KIBM 190455Z AUTO 15004KT 10SM CLR 05/M02 A3013 RMK AO2 T00511023
KIBM 190435Z AUTO 16004KT 10SM CLR 06/M02 A3013 RMK AO2 T00631020
KIBM 190415Z AUTO 15006KT 10SM CLR 06/M02 A3013 RMK AO2 T00641021
KIBM 190400Z AUTO 15006KT 10SM CLR 07/M02 A3013 RMK AO2 T00661021
KIBM 190335Z AUTO 15005KT 10SM CLR 08/M02 A3013 RMK AO2 T00801025
KIBM 190315Z AUTO 16008KT 10SM CLR 07/M03 A3013 RMK AO2 T00741031
KIBM 190255Z AUTO 16007KT 10SM CLR 07/M03 A3013 RMK AO2 T00721027
KIBM 190235Z AUTO 15007KT 10SM CLR 09/M03 A3013 RMK AO2 T00851030
KIBM 190215Z AUTO 15007KT 10SM CLR 08/M04 A3013 RMK AO2 T00801036
KIBM 190155Z AUTO 16006KT 10SM CLR 09/M04 A3014 RMK AO2 T00871040
KIBM 190135Z AUTO 17007KT 10SM CLR 09/M03 A3013 RMK AO2 T00881033
KIBM 190115Z AUTO 16005KT 10SM CLR 10/M04 A3013 RMK AO2 T00961043
KIBM 190055Z AUTO 13006KT 10SM CLR 10/M04 A3013 RMK AO2 T01011040
KIBM 190040Z AUTO 14006KT 10SM CLR 12/M04 A3013 RMK AO2 T01211042
KIBM 190015Z AUTO 12005KT 10SM CLR 14/M04 A3013 RMK AO2 T01361040
KIBM 182355Z AUTO 12006KT 10SM CLR 16/M04 A3012 RMK AO2 T01551041 10219 20155
KIBM 182335Z AUTO 12007KT 10SM CLR 19/M05 A3012 RMK AO2 T01851047
KIBM 182315Z AUTO 11008KT 10SM CLR 20/M05 A3012 RMK AO2 T02001052
KIBM 182255Z AUTO 11008KT 10SM CLR 21/M06 A3012 RMK AO2 T02101057
KIBM 182235Z AUTO 11007KT 10SM CLR 21/M06 A3012 RMK AO2 T02141056
KIBM 182215Z AUTO 09006KT 10SM CLR 22/M05 A3012 RMK AO2 T02161055
KIBM 182155Z AUTO 08008KT 10SM CLR 22/M06 A3012 RMK AO2 T02161057
KIBM 182135Z AUTO 09004KT 10SM CLR 22/M06 A3012 RMK AO2 T02171060
KIBM 182115Z AUTO 08008KT 10SM CLR 21/M06 A3012 RMK AO2 T02131061
KIBM 182055Z AUTO 06006KT 10SM CLR 22/M06 A3013 RMK AO2 T02161060
KIBM 182035Z AUTO 06003KT 10SM CLR 22/M06 A3013 RMK AO2 T02181057
KIBM 182015Z AUTO 00000KT 10SM CLR 21/M06 A3013 RMK AO2 T02131062
KIBM 181955Z AUTO 00000KT 10SM CLR 21/M06 A3014 RMK AO2 T02121065
KIBM 181935Z AUTO 05005KT 10SM CLR 21/M06 A3014 RMK AO2 T02091062
KIBM 181915Z AUTO 05008KT 020V080 10SM CLR 21/M06 A3014 RMK AO2 T02091065
KIBM 181855Z AUTO 06007G14KT 10SM CLR 21/M06 A3015 RMK AO2 T02061064
KIBM 181835Z AUTO 03009KT 10SM CLR 21/M07 A3015 RMK AO2 T02091067
KIBM 181815Z AUTO 04006G16KT 10SM CLR 21/M07 A3016 RMK AO2 T02101069
KIBM 181755Z AUTO 36010KT 10SM CLR 21/M07 A3016 RMK AO2 T02101073 10212 20103
KIBM 181735Z AUTO 01012G19KT 10SM CLR 21/M07 A3015 RMK AO2 T02121074
KIBM 181715Z AUTO 35014G21KT 10SM CLR 21/M08 A3015 RMK AO2 T02071083
KIBM 181655Z AUTO 34013G19KT 10SM CLR 21/M08 A3015 RMK AO2 T02081083
KIBM 181635Z AUTO 33013G18KT 10SM CLR 21/M09 A3015 RMK AO2 T02051087
KIBM 181615Z AUTO 32013G19KT 10SM CLR 20/M08 A3014 RMK AO2 T02021078
KIBM 181555Z AUTO 31013G16KT 10SM CLR 19/M07 A3014 RMK AO2 T01931071
KIBM 181535Z AUTO 31014G19KT 10SM CLR 18/M08 A3013 RMK AO2 T01761076
KIBM 181515Z AUTO 29014KT 10SM CLR 17/M07 A3011 RMK AO2 T01671074
KIBM 181455Z AUTO 28010KT 10SM CLR 15/M05 A3011 RMK AO2 T01461055
KIBM 181435Z AUTO 25006KT 10SM CLR 13/M06 A3010 RMK AO2 T01341063
KIBM 181415Z AUTO 27009KT 10SM CLR 11/M06 A3008 RMK AO2 T01131063
KIBM 181355Z AUTO 27010KT 10SM CLR 11/M07 A3008 RMK AO2 T01111067
KIBM 181335Z AUTO 28011KT 10SM CLR 10/M07 A3006 RMK AO2 T01041072
KIBM 181315Z AUTO 27015KT 10SM CLR 12/M08 A3005 RMK AO2 T01151081
KIBM 181255Z AUTO 27010KT 10SM CLR 11/M07 A3005 RMK AO2 T01111073
KIBM 181235Z AUTO 25010KT 10SM CLR 12/M07 A3005 RMK AO2 T01191071
KIBM 181210Z AUTO 27013KT 10SM CLR 12/M07 A3005 RMK AO2 T01191071
KIBM 181155Z AUTO 27010KT 10SM CLR 10/M06 A3004 RMK AO2 T01031062 10137 20061
KIBM 181135Z AUTO 28009KT 10SM CLR 10/M06 A3002 RMK AO2 T01001064
KIBM 181115Z AUTO 28009KT 10SM CLR 12/M07 A3001 RMK AO2 T01151066
KIBM 181055Z AUTO 27011KT 10SM CLR 11/M06 A3001 RMK AO2 T01131062
KIBM 181035Z AUTO 27006KT 10SM CLR 11/M06 A3001 RMK AO2 T01101058
KIBM 181015Z AUTO 26008KT 10SM CLR 10/M05 A3001 RMK AO2 T00981051
KIBM 180955Z AUTO 25004KT 10SM CLR 11/M06 A3001 RMK AO2 T01081058
KIBM 180935Z AUTO 25007KT 10SM CLR 13/M07 A3001 RMK AO2 T01331068
KIBM 180915Z AUTO 26010KT 10SM CLR 11/M06 A3002 RMK AO2 T01071056
KIBM 180855Z AUTO 26009KT 10SM CLR 11/M05 A3001 RMK AO2 T01111055
KIBM 180837Z AUTO 25010KT 10SM CLR 11/M06 A3001 RMK AO2
KIBM 180755Z AUTO 26007KT 10SM CLR 07/M04 A3000 RMK AO2 T00711038
KIBM 180735Z AUTO 27008KT 10SM CLR 07/M04 A3001 RMK AO2 T00661036
KIBM 180710Z AUTO 26008KT 10SM CLR 08/M04 A3001 RMK AO2 T00761040
KIBM 180655Z AUTO 27007KT 10SM CLR 07/M04 A3001 RMK AO2 T00711038 402590000
KIBM 180640Z AUTO 26009KT 10SM CLR 07/M04 A3001 RMK AO2 T00721040
KIBM 180615Z AUTO 27009KT 10SM CLR 06/M04 A3002 RMK AO2 T00631040
KIBM 180555Z AUTO 26009KT 10SM CLR 07/M04 A3002 RMK AO2 T00671042 10185 20065
KIBM 180535Z AUTO 26009KT 10SM CLR 07/M04 A3003 RMK AO2 T00651038
KIBM 180515Z AUTO 27009KT 10SM CLR 07/M04 A3004 RMK AO2 T00661037
KIBM 180455Z AUTO 26011KT 10SM CLR 07/M03 A3004 RMK AO2 T00701035
KIBM 180435Z AUTO 26006KT 10SM CLR 07/M03 A3005 RMK AO2 T00661035
KIBM 180415Z AUTO 26009KT 10SM CLR 09/M04 A3005 RMK AO2 T00851036
KIBM 180355Z AUTO 27007KT 10SM CLR 08/M04 A3005 RMK AO2 T00781036
KIBM 180335Z AUTO 00000KT 10SM CLR 07/M04 A3005 RMK AO2 T00721036
KIBM 180315Z AUTO 26004KT 10SM CLR 08/M03 A3005 RMK AO2 T00781031
KIBM 180255Z AUTO 25006KT 10SM CLR 08/M03 A3006 RMK AO2 T00761031
KIBM 180235Z AUTO 27005KT 10SM CLR 09/M04 A3006 RMK AO2 T00871038
KIBM 180215Z AUTO 00000KT 10SM CLR 09/M04 A3006 RMK AO2 T00881045
KIBM 180155Z AUTO 25006KT 10SM CLR 09/M05 A3006 RMK AO2 T00941046
KIBM 180135Z AUTO 24005KT 10SM CLR 12/M06 A3006 RMK AO2 T01201056
KIBM 180115Z AUTO 22005KT 10SM CLR 12/M05 A3006 RMK AO2 T01201052
KIBM 180100Z AUTO 00000KT 10SM CLR 13/M05 A3005 RMK AO2 T01301053
KIBM 180035Z AUTO 00000KT 10SM CLR 15/M06 A3005 RMK AO2 T01461062
KIBM 180015Z AUTO 30003KT 10SM CLR 18/M07 A3005 RMK AO2 T01821075
KIBM 172355Z AUTO 29004KT 10SM CLR 19/M07 A3005 RMK AO2 T01851072 10259 20185
KIBM 172335Z AUTO 30007KT 10SM CLR 21/M07 A3005 RMK AO2 T02101070
KIBM 172315Z AUTO 30009KT 10SM CLR 23/M07 A3005 RMK AO2 T02311073
KIBM 172255Z AUTO 30009G18KT 10SM CLR 24/M08 A3005 RMK AO2 T02411079